createdAt,value
2022-12-18T00:01:32.757Z,80.31
2022-12-18T00:04:03.699Z,79.90
2022-12-18T00:06:31.860Z,80.23
2022-12-18T00:09:00.900Z,79.87
2022-12-18T00:11:31.678Z,79.97
2022-12-18T00:14:02.029Z,79.96
2022-12-18T00:16:36.456Z,79.86
2022-12-18T00:19:05.994Z,79.65
2022-12-18T00:21:34.664Z,80.02
2022-12-18T00:24:02.887Z,79.53
2022-12-18T00:26:33.523Z,79.23
2022-12-18T00:29:14.876Z,79.32
2022-12-18T00:31:44.041Z,79.25
2022-12-18T00:34:14.127Z,79.58
2022-12-18T00:36:42.463Z,79.48
2022-12-18T00:39:11.813Z,79.16
2022-12-18T00:41:57.601Z,79.05
2022-12-18T00:44:25.135Z,79.00
2022-12-18T00:46:52.357Z,79.04
2022-12-18T00:49:21.190Z,78.91
2022-12-18T00:51:49.055Z,79.04
2022-12-18T00:54:17.122Z,78.44
2022-12-18T00:56:51.447Z,78.50
2022-12-18T00:59:19.679Z,78.56
2022-12-18T01:01:48.221Z,78.49
2022-12-18T01:04:16.248Z,78.50
2022-12-18T01:06:43.500Z,78.64
2022-12-18T01:09:13.799Z,78.78
2022-12-18T01:11:41.493Z,79.22
2022-12-18T01:14:09.677Z,79.05
2022-12-18T01:16:36.894Z,79.24
2022-12-18T01:19:04.429Z,79.19
2022-12-18T01:21:31.866Z,79.37
2022-12-18T01:23:59.913Z,79.48
2022-12-18T01:26:30.616Z,79.83
2022-12-18T01:28:59.441Z,80.43
2022-12-18T01:31:33.073Z,80.15
2022-12-18T01:34:06.151Z,80.23
2022-12-18T01:36:37.865Z,80.22
2022-12-18T01:39:14.043Z,80.04
2022-12-18T01:42:00.945Z,79.94
2022-12-18T01:45:03.433Z,80.37
2022-12-18T01:47:37.821Z,80.27
2022-12-18T01:50:24.632Z,80.46
2022-12-18T01:53:01.292Z,80.52
2022-12-18T01:55:36.106Z,80.68
2022-12-18T01:58:04.628Z,80.47
2022-12-18T02:00:32.760Z,80.53
2022-12-18T02:03:00.117Z,81.20
2022-12-18T02:06:05.754Z,81.24
2022-12-18T02:08:52.016Z,81.01
2022-12-18T02:11:58.295Z,81.12
2022-12-18T02:15:04.562Z,81.25
2022-12-18T02:17:38.852Z,81.06
2022-12-18T02:20:19.124Z,81.17
2022-12-18T02:22:55.066Z,80.81
2022-12-18T02:25:48.914Z,81.21
2022-12-18T02:28:21.866Z,80.96
2022-12-18T02:30:53.507Z,80.89
2022-12-18T02:33:25.221Z,81.22
2022-12-18T02:35:55.460Z,81.55
2022-12-18T02:38:26.114Z,81.35
2022-12-18T02:40:55.114Z,81.12
2022-12-18T02:43:22.621Z,81.31
2022-12-18T02:45:55.899Z,81.09
2022-12-18T02:48:33.446Z,80.28
2022-12-18T02:51:30.175Z,80.39
2022-12-18T02:54:23.950Z,80.74
2022-12-18T02:56:56.938Z,80.46
2022-12-18T02:59:42.173Z,80.79
2022-12-18T03:02:24.677Z,80.81
2022-12-18T03:05:18.771Z,80.61
2022-12-18T03:07:58.309Z,80.27
2022-12-18T03:10:32.151Z,80.34
2022-12-18T03:13:16.698Z,81.00
2022-12-18T03:15:50.629Z,81.06
2022-12-18T03:18:28.651Z,81.22
2022-12-18T03:21:03.929Z,81.07
2022-12-18T03:23:40.731Z,80.93
2022-12-18T03:26:18.561Z,80.89
2022-12-18T03:28:56.853Z,80.70
2022-12-18T03:31:27.493Z,80.79
2022-12-18T03:34:00.480Z,80.95
2022-12-18T03:36:28.910Z,80.90
2022-12-18T03:38:56.204Z,80.74
2022-12-18T03:41:50.549Z,80.93
2022-12-18T03:44:51.089Z,80.61
2022-12-18T03:47:36.262Z,80.64
2022-12-18T03:50:48.235Z,80.49
2022-12-18T03:53:59.073Z,80.98
2022-12-18T03:56:34.182Z,80.60
2022-12-18T03:59:05.670Z,81.20
2022-12-18T04:01:40.242Z,81.29
2022-12-18T04:04:10.992Z,81.24
2022-12-18T04:06:40.924Z,81.22
2022-12-18T04:09:09.233Z,81.23
2022-12-18T04:11:36.529Z,81.19
2022-12-18T04:14:07.190Z,81.28
2022-12-18T04:16:34.709Z,81.21
2022-12-18T04:19:02.339Z,80.95
2022-12-18T04:21:29.581Z,80.87
2022-12-18T04:23:57.094Z,81.15
2022-12-18T04:26:24.447Z,81.10
2022-12-18T04:28:51.959Z,81.27
2022-12-18T04:31:19.254Z,80.99
2022-12-18T04:33:46.773Z,80.98
2022-12-18T04:36:14.144Z,81.10
2022-12-18T04:38:41.889Z,81.26
2022-12-18T04:41:09.298Z,81.46
2022-12-18T04:43:36.997Z,81.84
2022-12-18T04:46:09.485Z,81.47
2022-12-18T04:48:38.311Z,81.31
2022-12-18T04:51:07.090Z,81.49
2022-12-18T04:53:34.883Z,81.40
2022-12-18T04:56:11.768Z,81.08
2022-12-18T04:58:41.459Z,81.19
2022-12-18T05:01:10.358Z,80.79
2022-12-18T05:03:39.766Z,81.12
2022-12-18T05:06:08.582Z,81.20
2022-12-18T05:08:36.528Z,81.33
2022-12-18T05:11:11.288Z,81.02
2022-12-18T05:13:39.910Z,80.99
2022-12-18T05:16:08.679Z,80.91
2022-12-18T05:18:36.870Z,80.85
2022-12-18T05:21:04.630Z,80.96
2022-12-18T05:23:32.662Z,80.68
2022-12-18T05:26:03.359Z,80.55
2022-12-18T05:28:33.078Z,80.83
2022-12-18T05:31:03.485Z,80.82
2022-12-18T05:33:35.543Z,81.17
2022-12-18T05:36:06.707Z,81.05
2022-12-18T05:38:37.665Z,80.84
2022-12-18T05:41:06.593Z,80.97
2022-12-18T05:43:37.542Z,80.95
2022-12-18T05:46:14.028Z,80.89
2022-12-18T05:48:42.896Z,80.73
2022-12-18T05:51:15.547Z,80.70
2022-12-18T05:53:44.395Z,80.51
2022-12-18T05:56:21.402Z,80.57
2022-12-18T05:58:54.203Z,80.65
2022-12-18T06:01:26.464Z,80.78
2022-12-18T06:03:54.964Z,81.64
2022-12-18T06:06:28.713Z,81.28
2022-12-18T06:08:57.686Z,81.19
2022-12-18T06:11:28.181Z,81.14
2022-12-18T06:13:59.327Z,81.29
2022-12-18T06:16:28.840Z,81.29
2022-12-18T06:19:02.738Z,81.24
2022-12-18T06:21:31.679Z,81.00
2022-12-18T06:24:00.983Z,80.72
2022-12-18T06:26:28.755Z,80.79
2022-12-18T06:28:56.560Z,80.46
2022-12-18T06:31:23.898Z,80.56
2022-12-18T06:33:51.581Z,80.53
2022-12-18T06:36:18.908Z,80.71
2022-12-18T06:38:46.456Z,80.85
2022-12-18T06:41:20.921Z,80.47
2022-12-18T06:43:48.714Z,80.26
2022-12-18T06:46:16.533Z,80.12
2022-12-18T06:48:47.372Z,80.49
2022-12-18T06:51:21.939Z,80.18
2022-12-18T06:53:49.941Z,80.09
2022-12-18T06:56:17.623Z,80.50
2022-12-18T06:58:45.373Z,80.10
2022-12-18T07:01:14.865Z,79.95
2022-12-18T07:03:44.586Z,79.81
2022-12-18T07:06:21.184Z,79.74
2022-12-18T07:08:50.669Z,80.00
2022-12-18T07:11:19.147Z,79.95
2022-12-18T07:13:47.877Z,79.67
2022-12-18T07:16:25.159Z,79.57
2022-12-18T07:18:55.829Z,79.33
2022-12-18T07:21:25.311Z,79.27
2022-12-18T07:23:53.335Z,79.17
2022-12-18T07:26:22.953Z,78.83
2022-12-18T07:28:51.334Z,78.22
2022-12-18T07:31:22.812Z,78.09
2022-12-18T07:33:51.889Z,77.76
2022-12-18T07:36:20.446Z,77.43
2022-12-18T07:38:53.541Z,77.19
2022-12-18T07:41:22.292Z,77.13
2022-12-18T07:43:49.831Z,76.38
2022-12-18T07:46:18.769Z,76.39
2022-12-18T07:48:49.349Z,75.85
2022-12-18T07:51:19.583Z,75.61
2022-12-18T07:53:49.763Z,74.89
2022-12-18T07:56:30.373Z,74.30
2022-12-18T07:59:00.216Z,72.87
2022-12-18T08:01:28.666Z,72.63
2022-12-18T08:03:56.149Z,71.68
2022-12-18T08:06:24.824Z,70.68
2022-12-18T08:08:54.618Z,69.94
2022-12-18T08:11:24.341Z,69.57
2022-12-18T08:13:52.194Z,69.28
2022-12-18T08:16:21.626Z,69.06
2022-12-18T08:18:49.747Z,67.75
2022-12-18T08:21:26.373Z,67.09
2022-12-18T08:23:56.755Z,65.84
2022-12-18T08:26:26.894Z,66.02
2022-12-18T08:28:57.193Z,65.89
2022-12-18T08:31:26.132Z,65.75
2022-12-18T08:33:55.421Z,64.02
2022-12-18T08:36:24.355Z,63.18
2022-12-18T08:38:52.881Z,61.97
2022-12-18T08:41:20.821Z,60.43
2022-12-18T08:44:06.743Z,59.64
2022-12-18T08:46:43.382Z,56.59
2022-12-18T08:49:12.723Z,53.51
2022-12-18T08:51:40.796Z,52.68
2022-12-18T08:54:08.368Z,50.50
2022-12-18T08:56:36.259Z,48.10
2022-12-18T08:59:05.387Z,46.87
2022-12-18T09:01:33.284Z,47.33
2022-12-18T09:04:01.564Z,46.53
2022-12-18T09:06:29.069Z,45.47
2022-12-18T09:08:56.313Z,43.56
2022-12-18T09:11:27.416Z,43.06
2022-12-18T09:13:57.019Z,42.75
2022-12-18T09:16:31.644Z,43.55
2022-12-18T09:19:00.956Z,43.81
2022-12-18T09:21:37.021Z,40.42
2022-12-18T09:24:08.506Z,37.78
2022-12-18T09:26:36.996Z,36.70
2022-12-18T09:29:05.048Z,35.29
2022-12-18T09:31:32.642Z,35.52
2022-12-18T09:33:59.970Z,33.46
2022-12-18T09:36:27.653Z,30.54
2022-12-18T09:38:54.903Z,29.33
2022-12-18T09:41:45.432Z,28.67
2022-12-18T09:44:24.359Z,28.00
2022-12-18T09:47:07.581Z,26.07
2022-12-18T09:49:43.089Z,26.60
2022-12-18T09:52:28.923Z,25.45
2022-12-18T09:55:29.890Z,24.13
2022-12-18T09:58:25.712Z,25.48
2022-12-18T10:00:54.632Z,27.55
2022-12-18T10:03:22.955Z,29.18
2022-12-18T10:06:41.199Z,31.56
2022-12-18T10:09:50.169Z,32.82
2022-12-18T10:12:45.847Z,34.11
2022-12-18T10:15:31.525Z,34.97
2022-12-18T10:18:22.181Z,34.75
2022-12-18T10:21:00.049Z,35.19
2022-12-18T10:24:00.151Z,35.79
2022-12-18T10:26:27.717Z,36.39
2022-12-18T10:28:56.947Z,36.78
2022-12-18T10:31:26.277Z,36.79
2022-12-18T10:33:56.221Z,37.15
2022-12-18T10:36:25.811Z,37.72
2022-12-18T10:38:53.197Z,37.57
2022-12-18T10:41:23.130Z,37.42
2022-12-18T10:44:13.207Z,36.60
2022-12-18T10:46:41.765Z,36.82
2022-12-18T10:49:25.027Z,37.46
2022-12-18T10:52:08.412Z,37.25
2022-12-18T10:54:37.374Z,34.56
2022-12-18T10:57:41.577Z,31.11
2022-12-18T11:00:31.476Z,29.45
2022-12-18T11:02:59.372Z,29.48
2022-12-18T11:05:35.405Z,28.24
2022-12-18T11:08:04.174Z,30.13
2022-12-18T11:10:41.103Z,31.21
2022-12-18T11:13:23.123Z,31.46
2022-12-18T11:15:51.876Z,31.39
2022-12-18T11:18:28.570Z,31.78
2022-12-18T11:21:07.311Z,31.52
2022-12-18T11:23:37.591Z,32.16
2022-12-18T11:26:07.236Z,33.54
2022-12-18T11:29:10.423Z,33.63
2022-12-18T11:31:37.758Z,34.42
2022-12-18T11:34:32.445Z,34.06
2022-12-18T11:37:04.152Z,34.29
2022-12-18T11:39:50.859Z,33.13
2022-12-18T11:42:44.074Z,28.95
2022-12-18T11:45:14.727Z,26.44
2022-12-18T11:48:06.911Z,23.62
2022-12-18T11:50:59.665Z,20.70
2022-12-18T11:53:28.840Z,21.53
2022-12-18T11:56:31.012Z,19.88
2022-12-18T11:59:04.582Z,19.69
2022-12-18T12:01:56.299Z,21.74
2022-12-18T12:05:07.644Z,22.16
2022-12-18T12:08:11.079Z,22.88
2022-12-18T12:10:48.827Z,22.29
2022-12-18T12:13:57.293Z,20.41
2022-12-18T12:16:34.761Z,19.36
2022-12-18T12:19:28.388Z,17.84
2022-12-18T12:22:21.701Z,18.11
2022-12-18T12:25:47.194Z,17.29
2022-12-18T12:28:31.291Z,16.65
2022-12-18T12:31:38.321Z,17.56
2022-12-18T12:34:27.621Z,17.64
2022-12-18T12:37:38.053Z,17.21
2022-12-18T12:40:26.808Z,16.61
2022-12-18T12:43:24.389Z,17.29
2022-12-18T12:46:02.358Z,15.97
2022-12-18T12:48:45.567Z,16.51
2022-12-18T12:51:36.623Z,17.40
2022-12-18T12:54:14.161Z,16.77
2022-12-18T12:56:50.800Z,15.96
2022-12-18T12:59:41.403Z,17.27
2022-12-18T13:02:57.610Z,16.96
2022-12-18T13:05:35.691Z,17.28
2022-12-18T13:08:28.573Z,17.31
2022-12-18T13:11:19.766Z,17.40
2022-12-18T13:13:57.166Z,17.43
2022-12-18T13:16:30.645Z,18.10
2022-12-18T13:18:59.853Z,18.45
2022-12-18T13:21:32.080Z,18.73
2022-12-18T13:24:28.285Z,18.50
2022-12-18T13:26:55.878Z,19.02
2022-12-18T13:29:46.961Z,19.33
2022-12-18T13:32:25.403Z,19.52
2022-12-18T13:35:18.173Z,20.14
2022-12-18T13:37:54.413Z,19.79
2022-12-18T13:40:39.868Z,20.55
2022-12-18T13:43:35.628Z,21.19
2022-12-18T13:46:23.857Z,21.54
2022-12-18T13:48:59.432Z,22.08
2022-12-18T13:51:28.192Z,22.58
2022-12-18T13:54:00.706Z,22.97
2022-12-18T13:56:34.525Z,22.78
2022-12-18T13:59:15.906Z,23.28
2022-12-18T14:02:06.643Z,24.27
2022-12-18T14:04:37.007Z,25.84
2022-12-18T14:07:23.569Z,26.83
2022-12-18T14:10:18.887Z,27.42
2022-12-18T14:13:00.677Z,28.81
2022-12-18T14:15:45.459Z,31.19
2022-12-18T14:18:43.398Z,32.22
2022-12-18T14:21:31.173Z,33.79
2022-12-18T14:24:24.684Z,34.30
2022-12-18T14:26:52.791Z,35.29
2022-12-18T14:29:32.068Z,36.73
2022-12-18T14:32:17.691Z,38.11
2022-12-18T14:34:51.832Z,39.19
2022-12-18T14:37:26.636Z,41.12
2022-12-18T14:39:59.159Z,41.30
2022-12-18T14:42:29.407Z,43.33
2022-12-18T14:45:43.231Z,44.95
2022-12-18T14:48:48.581Z,45.54
2022-12-18T14:51:25.870Z,45.69
2022-12-18T14:54:01.491Z,46.22
2022-12-18T14:56:33.402Z,46.08
2022-12-18T14:59:25.680Z,47.45
2022-12-18T15:02:01.950Z,48.39
2022-12-18T15:04:44.492Z,48.69
2022-12-18T15:07:23.825Z,48.12
2022-12-18T15:10:19.048Z,47.88
2022-12-18T15:12:56.131Z,48.19
2022-12-18T15:15:38.716Z,48.11
2022-12-18T15:18:09.687Z,48.93
2022-12-18T15:21:01.205Z,50.33
2022-12-18T15:24:00.777Z,51.29
2022-12-18T15:26:39.426Z,51.62
2022-12-18T15:29:10.140Z,51.41
2022-12-18T15:31:40.377Z,54.08
2022-12-18T15:34:21.657Z,53.09
2022-12-18T15:36:52.161Z,52.91
2022-12-18T15:39:19.518Z,52.95
2022-12-18T15:42:06.638Z,52.99
2022-12-18T15:44:35.222Z,53.95
2022-12-18T15:47:03.151Z,53.37
2022-12-18T15:49:30.502Z,53.50
2022-12-18T15:52:03.067Z,54.57
2022-12-18T15:54:48.870Z,54.54
2022-12-18T15:57:24.938Z,54.48
2022-12-18T15:59:55.215Z,54.57
2022-12-18T16:02:24.024Z,54.92
2022-12-18T16:04:53.819Z,54.55
2022-12-18T16:07:25.582Z,54.92
2022-12-18T16:09:54.031Z,54.94
2022-12-18T16:12:26.172Z,55.30
2022-12-18T16:14:53.559Z,55.30
2022-12-18T16:17:21.288Z,55.75
2022-12-18T16:19:48.775Z,56.63
2022-12-18T16:22:29.047Z,57.00
2022-12-18T16:24:58.193Z,56.40
2022-12-18T16:27:26.811Z,56.30
2022-12-18T16:29:54.080Z,56.63
2022-12-18T16:32:23.721Z,57.29
2022-12-18T16:34:52.364Z,57.73
2022-12-18T16:37:20.146Z,57.76
2022-12-18T16:39:47.397Z,58.47
2022-12-18T16:42:20.518Z,58.97
2022-12-18T16:44:50.112Z,59.60
2022-12-18T16:47:18.619Z,59.28
2022-12-18T16:49:46.817Z,59.00
2022-12-18T16:52:15.157Z,59.14
2022-12-18T16:54:42.538Z,59.54
2022-12-18T16:57:15.180Z,59.29
2022-12-18T16:59:43.181Z,59.64
2022-12-18T17:02:15.898Z,60.43
2022-12-18T17:04:45.402Z,61.62
2022-12-18T17:07:14.397Z,61.61
2022-12-18T17:09:42.592Z,63.50
2022-12-18T17:12:10.469Z,64.68
2022-12-18T17:14:38.047Z,64.96
2022-12-18T17:17:22.767Z,66.41
2022-12-18T17:19:52.563Z,68.01
2022-12-18T17:22:23.461Z,69.81
2022-12-18T17:24:51.374Z,70.37
2022-12-18T17:27:19.056Z,70.70
2022-12-18T17:29:48.308Z,71.64
2022-12-18T17:32:18.369Z,73.56
2022-12-18T17:34:46.544Z,74.22
2022-12-18T17:37:14.470Z,74.87
2022-12-18T17:39:42.315Z,74.44
2022-12-18T17:42:10.911Z,75.54
2022-12-18T17:44:42.775Z,75.55
2022-12-18T17:47:12.357Z,75.50
2022-12-18T17:49:39.865Z,76.19
2022-12-18T17:52:07.593Z,75.64
2022-12-18T17:54:37.901Z,76.33
2022-12-18T17:57:05.964Z,75.19
2022-12-18T17:59:33.393Z,76.12
2022-12-18T18:02:01.017Z,76.94
2022-12-18T18:04:28.486Z,77.04
2022-12-18T18:06:55.972Z,77.71
2022-12-18T18:09:23.350Z,78.42
2022-12-18T18:12:10.152Z,77.93
2022-12-18T18:14:37.515Z,77.58
2022-12-18T18:17:05.397Z,77.76
2022-12-18T18:19:34.343Z,78.97
2022-12-18T18:22:02.973Z,79.00
2022-12-18T18:24:30.977Z,78.10
2022-12-18T18:27:01.664Z,77.53
2022-12-18T18:29:33.333Z,77.74
2022-12-18T18:32:01.099Z,77.66
2022-12-18T18:34:32.195Z,79.18
2022-12-18T18:37:02.235Z,78.54
2022-12-18T18:39:30.330Z,78.15
2022-12-18T18:41:57.928Z,77.65
2022-12-18T18:44:25.939Z,77.66
2022-12-18T18:46:58.747Z,78.25
2022-12-18T18:49:28.427Z,77.93
2022-12-18T18:51:59.224Z,78.07
2022-12-18T18:54:26.977Z,78.45
2022-12-18T18:59:42.495Z,78.27
2022-12-18T19:02:14.260Z,78.20
2022-12-18T19:04:46.073Z,78.46
2022-12-18T19:07:22.543Z,78.61
2022-12-18T19:10:04.073Z,79.08
2022-12-18T19:12:52.987Z,78.92
2022-12-18T19:15:20.591Z,79.23
2022-12-18T19:17:48.407Z,79.28
2022-12-18T19:20:16.552Z,79.22
2022-12-18T19:22:47.942Z,79.00
2022-12-18T19:25:38.576Z,78.44
2022-12-18T19:28:16.427Z,78.05
2022-12-18T19:30:49.086Z,78.51
2022-12-18T19:33:45.483Z,79.03
2022-12-18T19:36:20.284Z,78.87
2022-12-18T19:38:50.213Z,78.85
2022-12-18T19:41:19.132Z,79.52
2022-12-18T19:43:47.232Z,79.39
2022-12-18T19:46:20.200Z,79.43
2022-12-18T19:48:48.701Z,79.75
2022-12-18T19:51:24.039Z,79.90
2022-12-18T19:53:58.183Z,80.27
2022-12-18T19:56:30.812Z,79.25
2022-12-18T19:58:58.506Z,79.78
2022-12-18T20:01:28.576Z,79.45
2022-12-18T20:03:57.013Z,80.06
2022-12-18T20:06:31.532Z,80.14
2022-12-18T20:09:04.743Z,80.48
2022-12-18T20:11:41.260Z,80.65
2022-12-18T20:14:12.154Z,81.02
2022-12-18T20:16:39.754Z,80.72
2022-12-18T20:19:10.197Z,80.68
2022-12-18T20:21:38.108Z,80.73
2022-12-18T20:24:08.386Z,80.45
2022-12-18T20:26:35.976Z,80.85
2022-12-18T20:29:03.663Z,81.01
2022-12-18T20:31:31.092Z,81.36
2022-12-18T20:34:01.490Z,81.44
2022-12-18T20:36:30.793Z,81.54
2022-12-18T20:39:01.567Z,81.60
2022-12-18T20:41:38.258Z,81.77
2022-12-18T20:44:21.541Z,82.05
2022-12-18T20:46:57.650Z,81.65
2022-12-18T20:49:27.325Z,81.45
2022-12-18T20:51:57.094Z,80.96
2022-12-18T20:54:27.477Z,80.99
2022-12-18T20:56:55.945Z,81.33
2022-12-18T20:59:25.695Z,81.24
2022-12-18T21:01:53.312Z,81.57
2022-12-18T21:04:22.582Z,81.46
2022-12-18T21:06:59.238Z,81.59
2022-12-18T21:09:38.152Z,81.27
2022-12-18T21:12:32.927Z,81.12
2022-12-18T21:15:10.342Z,81.91
2022-12-18T21:17:44.193Z,81.88
2022-12-18T21:20:17.600Z,82.32
2022-12-18T21:22:46.843Z,82.57
2022-12-18T21:25:14.682Z,82.31
2022-12-18T21:27:41.885Z,82.75
2022-12-18T21:30:09.991Z,82.68
2022-12-18T21:32:37.238Z,82.37
2022-12-18T21:35:05.367Z,82.61
2022-12-18T21:37:32.672Z,82.08
2022-12-18T21:40:00.221Z,81.77
2022-12-18T21:42:45.978Z,81.51
2022-12-18T21:45:13.516Z,81.63
2022-12-18T21:47:40.699Z,81.23
2022-12-18T21:50:08.911Z,80.93
2022-12-18T21:52:36.175Z,81.05
2022-12-18T21:55:09.514Z,80.75
2022-12-18T21:57:39.512Z,80.37
2022-12-18T22:00:19.120Z,80.23
2022-12-18T22:03:01.203Z,79.88
2022-12-18T22:05:36.522Z,80.09
2022-12-18T22:08:04.001Z,79.91
2022-12-18T22:10:31.600Z,80.01
2022-12-18T22:12:59.177Z,80.26
2022-12-18T22:15:26.685Z,79.98
2022-12-18T22:17:58.721Z,79.67
2022-12-18T22:20:29.700Z,79.46
2022-12-18T22:22:57.517Z,79.73
2022-12-18T22:25:25.323Z,79.56
2022-12-18T22:28:11.332Z,79.55
2022-12-18T22:30:39.171Z,79.49
2022-12-18T22:33:06.492Z,79.33
2022-12-18T22:35:33.993Z,78.95
2022-12-18T22:38:01.753Z,79.11
2022-12-18T22:40:30.095Z,79.12
2022-12-18T22:42:59.308Z,78.53
2022-12-18T22:45:27.252Z,78.39
2022-12-18T22:47:54.594Z,78.49
2022-12-18T22:50:22.209Z,78.55
2022-12-18T22:52:49.629Z,78.83
2022-12-18T22:55:17.381Z,79.13
2022-12-18T22:57:49.078Z,78.94
2022-12-18T23:00:24.263Z,79.37
2022-12-18T23:02:59.838Z,79.26
2022-12-18T23:05:30.712Z,79.31
2022-12-18T23:07:58.449Z,79.14
2022-12-18T23:10:27.405Z,78.99
2022-12-18T23:12:54.797Z,79.30
2022-12-18T23:15:27.748Z,79.03
2022-12-18T23:17:58.899Z,79.22
2022-12-18T23:20:27.867Z,79.07
2022-12-18T23:22:55.128Z,79.21
2022-12-18T23:25:24.603Z,79.49
2022-12-18T23:27:51.881Z,79.67
2022-12-18T23:30:20.298Z,79.42
2022-12-18T23:32:48.875Z,79.28
2022-12-18T23:35:17.842Z,78.68
2022-12-18T23:37:59.304Z,78.80
2022-12-18T23:40:33.406Z,78.81
2022-12-18T23:43:00.626Z,78.75
2022-12-18T23:45:28.339Z,78.77
2022-12-18T23:47:55.678Z,78.44
2022-12-18T23:50:26.759Z,78.16
2022-12-18T23:53:03.296Z,78.34
2022-12-18T23:55:39.490Z,78.85
2022-12-18T23:58:09.182Z,79.15
